In Rescue
 
Open Full Screen Window  High Contrast Mode
Wind Gusting 00 knots
04
July 13, 2020 9:48 PM CDT
Weather Information
Wind Direction
  160 °
Wind Speed
  04 kt (5 mph)
Wind Gust
  00 kt (0 mph)
Altimeter
29.77 in
Visibility
10 SM
Temperature
26° C
79° F
Dewpoint
16° C
61° F
Humidity
54%
Sky Condition
Overcast @ 7,500 ft
VFR

METAR KDYT 140248Z AUTO 16004KT 10SM OVC075 26/16 A2977 RMK AO2

FAA Disclaimer: The data displayed is for advisory purposes only and is not to be used for flight planning or operations.